<?xml version="1.0" encoding="UTF-8" standalone="no" ?>
<gpx xmlns="http://www.topografix.com/GPX/1/1" xmlns:xsi="http://www.w3.org/2001/XMLSchema-instance" xsi:schemaLocation="http://www.topografix.com/GPX/1/1 http://www.topografix.com/GPX/1/1/gpx.xsd" version="1.1" creator="VisuGPX - https://www.visugpx.com">
  <metadata>
    <name>RSPFY-Tour de la plaine de la Madeleine (version courte)</name>
    <desc><![CDATA[boucle depuis Chevreuse passant par le château de la Madeleine, la forêt du Claireau, la forêt de la Madeleine et retour sur Chevreuse par le chemin Jean Racine.]]></desc>
  </metadata>
  <trk>
    <name><![CDATA[2020-08-11 08:48]]></name>
    <desc><![CDATA[<p>Heure de départ: 08:50 11 août 2020<br/>Heure d'arrivée: 10:59 11 août 2020<br/>Distance: 9,1 km (02:08)<br/>Temps déplacement: 01:44<br/>Vitesse moyenne: 4,27 km/h<br/>Vitesse moyenne mouv.: 5,23 km/h<br/>Vitesse Max.: 7,53 km/h<br/>Altitude minimale: 78 m<br/>Altitude maximale: 187 m<br/>Vitesse de montée: 264,1 m/h<br/>Vitesse de descente: -274,9 m/h<br/>Gain d'altitude: 289 m<br/>Perte d'altitude: -284 m<br/>Temps de montée: 01:05<br/>Temps de descente: 01:02<br/></p><hr align="center" width="480" style="height: 2px; width: 517px"/>]]></desc>
    <trkseg>
      <trkpt lat="48.70506" lon="2.03979">
        <ele>79</ele>
        <time>2020-08-11T06:50:45Z</time>
      </trkpt>
      <trkpt lat="48.70488" lon="2.0397">
        <ele>81</ele>
        <time>2020-08-11T06:51:39Z</time>
      </trkpt>
      <trkpt lat="48.70471" lon="2.03957">
        <ele>81</ele>
        <time>2020-08-11T06:51:53Z</time>
      </trkpt>
      <trkpt lat="48.70468" lon="2.03928">
        <ele>81</ele>
        <time>2020-08-11T06:52:08Z</time>
      </trkpt>
      <trkpt lat="48.70482" lon="2.03909">
        <ele>81</ele>
        <time>2020-08-11T06:52:22Z</time>
      </trkpt>
      <trkpt lat="48.70488" lon="2.03884">
        <ele>81</ele>
        <time>2020-08-11T06:52:34Z</time>
      </trkpt>
      <trkpt lat="48.70492" lon="2.03856">
        <ele>81</ele>
        <time>2020-08-11T06:52:47Z</time>
      </trkpt>
      <trkpt lat="48.70492" lon="2.03828">
        <ele>80</ele>
        <time>2020-08-11T06:53:00Z</time>
      </trkpt>
      <trkpt lat="48.705" lon="2.03802">
        <ele>80</ele>
        <time>2020-08-11T06:53:14Z</time>
      </trkpt>
      <trkpt lat="48.70502" lon="2.03774">
        <ele>80</ele>
        <time>2020-08-11T06:53:46Z</time>
      </trkpt>
      <trkpt lat="48.70521" lon="2.03774">
        <ele>80</ele>
        <time>2020-08-11T06:54:02Z</time>
      </trkpt>
      <trkpt lat="48.7054" lon="2.03773">
        <ele>80</ele>
        <time>2020-08-11T06:54:16Z</time>
      </trkpt>
      <trkpt lat="48.70542" lon="2.03801">
        <ele>79</ele>
        <time>2020-08-11T06:54:31Z</time>
      </trkpt>
      <trkpt lat="48.70545" lon="2.03828">
        <ele>79</ele>
        <time>2020-08-11T06:54:45Z</time>
      </trkpt>
      <trkpt lat="48.70559" lon="2.03846">
        <ele>79</ele>
        <time>2020-08-11T06:54:59Z</time>
      </trkpt>
      <trkpt lat="48.70573" lon="2.03863">
        <ele>79</ele>
        <time>2020-08-11T06:55:14Z</time>
      </trkpt>
      <trkpt lat="48.70587" lon="2.03881">
        <ele>79</ele>
        <time>2020-08-11T06:55:29Z</time>
      </trkpt>
      <trkpt lat="48.70601" lon="2.03899">
        <ele>79</ele>
        <time>2020-08-11T06:55:40Z</time>
      </trkpt>
      <trkpt lat="48.70615" lon="2.03917">
        <ele>79</ele>
        <time>2020-08-11T06:55:52Z</time>
      </trkpt>
      <trkpt lat="48.70628" lon="2.03936">
        <ele>80</ele>
        <time>2020-08-11T06:56:04Z</time>
      </trkpt>
      <trkpt lat="48.70643" lon="2.03954">
        <ele>80</ele>
        <time>2020-08-11T06:56:20Z</time>
      </trkpt>
      <trkpt lat="48.70656" lon="2.03973">
        <ele>80</ele>
        <time>2020-08-11T06:56:35Z</time>
      </trkpt>
      <trkpt lat="48.70674" lon="2.03974">
        <ele>82</ele>
        <time>2020-08-11T06:56:47Z</time>
      </trkpt>
      <trkpt lat="48.70693" lon="2.03973">
        <ele>82</ele>
        <time>2020-08-11T06:57:00Z</time>
      </trkpt>
      <trkpt lat="48.70711" lon="2.03965">
        <ele>83</ele>
        <time>2020-08-11T06:57:13Z</time>
      </trkpt>
      <trkpt lat="48.70726" lon="2.03949">
        <ele>84</ele>
        <time>2020-08-11T06:57:26Z</time>
      </trkpt>
      <trkpt lat="48.70744" lon="2.03959">
        <ele>84</ele>
        <time>2020-08-11T06:57:52Z</time>
      </trkpt>
      <trkpt lat="48.70758" lon="2.03976">
        <ele>88</ele>
        <time>2020-08-11T06:58:04Z</time>
      </trkpt>
      <trkpt lat="48.70776" lon="2.0397">
        <ele>88</ele>
        <time>2020-08-11T06:58:22Z</time>
      </trkpt>
      <trkpt lat="48.70792" lon="2.03957">
        <ele>88</ele>
        <time>2020-08-11T06:58:34Z</time>
      </trkpt>
      <trkpt lat="48.7081" lon="2.03949">
        <ele>89</ele>
        <time>2020-08-11T06:58:47Z</time>
      </trkpt>
      <trkpt lat="48.70828" lon="2.03941">
        <ele>89</ele>
        <time>2020-08-11T06:59:01Z</time>
      </trkpt>
      <trkpt lat="48.70838" lon="2.03965">
        <ele>94</ele>
        <time>2020-08-11T06:59:16Z</time>
      </trkpt>
      <trkpt lat="48.70856" lon="2.03967">
        <ele>95</ele>
        <time>2020-08-11T06:59:31Z</time>
      </trkpt>
      <trkpt lat="48.70865" lon="2.03992">
        <ele>95</ele>
        <time>2020-08-11T06:59:52Z</time>
      </trkpt>
      <trkpt lat="48.70874" lon="2.04016">
        <ele>99</ele>
        <time>2020-08-11T07:00:10Z</time>
      </trkpt>
      <trkpt lat="48.70892" lon="2.04021">
        <ele>101</ele>
        <time>2020-08-11T07:00:27Z</time>
      </trkpt>
      <trkpt lat="48.70897" lon="2.04048">
        <ele>102</ele>
        <time>2020-08-11T07:00:48Z</time>
      </trkpt>
      <trkpt lat="48.70892" lon="2.04075">
        <ele>104</ele>
        <time>2020-08-11T07:01:05Z</time>
      </trkpt>
      <trkpt lat="48.70902" lon="2.041">
        <ele>108</ele>
        <time>2020-08-11T07:01:20Z</time>
      </trkpt>
      <trkpt lat="48.70901" lon="2.04128">
        <ele>108</ele>
        <time>2020-08-11T07:01:36Z</time>
      </trkpt>
      <trkpt lat="48.70899" lon="2.04155">
        <ele>111</ele>
        <time>2020-08-11T07:01:52Z</time>
      </trkpt>
      <trkpt lat="48.70903" lon="2.04184">
        <ele>113</ele>
        <time>2020-08-11T07:02:07Z</time>
      </trkpt>
      <trkpt lat="48.70908" lon="2.0421">
        <ele>113</ele>
        <time>2020-08-11T07:02:21Z</time>
      </trkpt>
      <trkpt lat="48.70918" lon="2.04234">
        <ele>127</ele>
        <time>2020-08-11T07:02:36Z</time>
      </trkpt>
      <trkpt lat="48.70927" lon="2.04209">
        <ele>129</ele>
        <time>2020-08-11T07:02:53Z</time>
      </trkpt>
      <trkpt lat="48.70935" lon="2.04184">
        <ele>128</ele>
        <time>2020-08-11T07:03:08Z</time>
      </trkpt>
      <trkpt lat="48.70946" lon="2.04206">
        <ele>132</ele>
        <time>2020-08-11T07:03:45Z</time>
      </trkpt>
      <trkpt lat="48.70961" lon="2.04189">
        <ele>134</ele>
        <time>2020-08-11T07:04:16Z</time>
      </trkpt>
      <trkpt lat="48.70971" lon="2.04166">
        <ele>132</ele>
        <time>2020-08-11T07:04:32Z</time>
      </trkpt>
      <trkpt lat="48.70989" lon="2.04162">
        <ele>139</ele>
        <time>2020-08-11T07:04:48Z</time>
      </trkpt>
      <trkpt lat="48.71007" lon="2.04157">
        <ele>146</ele>
        <time>2020-08-11T07:05:09Z</time>
      </trkpt>
      <trkpt lat="48.71021" lon="2.04139">
        <ele>145</ele>
        <time>2020-08-11T07:07:21Z</time>
      </trkpt>
      <trkpt lat="48.71036" lon="2.04122">
        <ele>145</ele>
        <time>2020-08-11T07:08:01Z</time>
      </trkpt>
      <trkpt lat="48.71053" lon="2.04116">
        <ele>146</ele>
        <time>2020-08-11T07:08:15Z</time>
      </trkpt>
      <trkpt lat="48.71069" lon="2.0413">
        <ele>147</ele>
        <time>2020-08-11T07:08:28Z</time>
      </trkpt>
      <trkpt lat="48.71085" lon="2.04146">
        <ele>154</ele>
        <time>2020-08-11T07:08:44Z</time>
      </trkpt>
      <trkpt lat="48.71104" lon="2.04147">
        <ele>154</ele>
        <time>2020-08-11T07:09:16Z</time>
      </trkpt>
      <trkpt lat="48.71122" lon="2.04152">
        <ele>154</ele>
        <time>2020-08-11T07:09:34Z</time>
      </trkpt>
      <trkpt lat="48.71129" lon="2.04177">
        <ele>156</ele>
        <time>2020-08-11T07:09:52Z</time>
      </trkpt>
      <trkpt lat="48.71137" lon="2.04202">
        <ele>156</ele>
        <time>2020-08-11T07:10:05Z</time>
      </trkpt>
      <trkpt lat="48.71145" lon="2.04227">
        <ele>156</ele>
        <time>2020-08-11T07:10:18Z</time>
      </trkpt>
      <trkpt lat="48.7115" lon="2.04255">
        <ele>156</ele>
        <time>2020-08-11T07:10:32Z</time>
      </trkpt>
      <trkpt lat="48.71153" lon="2.04282">
        <ele>156</ele>
        <time>2020-08-11T07:10:45Z</time>
      </trkpt>
      <trkpt lat="48.71157" lon="2.0431">
        <ele>156</ele>
        <time>2020-08-11T07:10:58Z</time>
      </trkpt>
      <trkpt lat="48.71165" lon="2.04335">
        <ele>158</ele>
        <time>2020-08-11T07:11:12Z</time>
      </trkpt>
      <trkpt lat="48.71164" lon="2.04363">
        <ele>156</ele>
        <time>2020-08-11T07:11:27Z</time>
      </trkpt>
      <trkpt lat="48.71162" lon="2.04392">
        <ele>156</ele>
        <time>2020-08-11T07:11:40Z</time>
      </trkpt>
      <trkpt lat="48.71162" lon="2.04419">
        <ele>158</ele>
        <time>2020-08-11T07:11:53Z</time>
      </trkpt>
      <trkpt lat="48.71161" lon="2.04448">
        <ele>156</ele>
        <time>2020-08-11T07:12:06Z</time>
      </trkpt>
      <trkpt lat="48.7116" lon="2.04476">
        <ele>156</ele>
        <time>2020-08-11T07:12:20Z</time>
      </trkpt>
      <trkpt lat="48.71159" lon="2.04505">
        <ele>158</ele>
        <time>2020-08-11T07:12:34Z</time>
      </trkpt>
      <trkpt lat="48.71156" lon="2.04534">
        <ele>157</ele>
        <time>2020-08-11T07:12:47Z</time>
      </trkpt>
      <trkpt lat="48.71155" lon="2.04563">
        <ele>158</ele>
        <time>2020-08-11T07:13:00Z</time>
      </trkpt>
      <trkpt lat="48.71155" lon="2.04592">
        <ele>160</ele>
        <time>2020-08-11T07:13:14Z</time>
      </trkpt>
      <trkpt lat="48.71153" lon="2.04619">
        <ele>161</ele>
        <time>2020-08-11T07:13:27Z</time>
      </trkpt>
      <trkpt lat="48.7115" lon="2.04647">
        <ele>163</ele>
        <time>2020-08-11T07:13:42Z</time>
      </trkpt>
      <trkpt lat="48.71157" lon="2.04673">
        <ele>167</ele>
        <time>2020-08-11T07:13:56Z</time>
      </trkpt>
      <trkpt lat="48.71161" lon="2.047">
        <ele>167</ele>
        <time>2020-08-11T07:14:12Z</time>
      </trkpt>
      <trkpt lat="48.71147" lon="2.04718">
        <ele>167</ele>
        <time>2020-08-11T07:14:28Z</time>
      </trkpt>
      <trkpt lat="48.71131" lon="2.04736">
        <ele>167</ele>
        <time>2020-08-11T07:14:43Z</time>
      </trkpt>
      <trkpt lat="48.71118" lon="2.04757">
        <ele>168</ele>
        <time>2020-08-11T07:14:58Z</time>
      </trkpt>
      <trkpt lat="48.71104" lon="2.04775">
        <ele>167</ele>
        <time>2020-08-11T07:15:12Z</time>
      </trkpt>
      <trkpt lat="48.71089" lon="2.04793">
        <ele>167</ele>
        <time>2020-08-11T07:15:25Z</time>
      </trkpt>
      <trkpt lat="48.71074" lon="2.04812">
        <ele>159</ele>
        <time>2020-08-11T07:15:38Z</time>
      </trkpt>
      <trkpt lat="48.7106" lon="2.0483">
        <ele>158</ele>
        <time>2020-08-11T07:15:51Z</time>
      </trkpt>
      <trkpt lat="48.71046" lon="2.04849">
        <ele>158</ele>
        <time>2020-08-11T07:16:06Z</time>
      </trkpt>
      <trkpt lat="48.71031" lon="2.04867">
        <ele>156</ele>
        <time>2020-08-11T07:16:20Z</time>
      </trkpt>
      <trkpt lat="48.71018" lon="2.04887">
        <ele>156</ele>
        <time>2020-08-11T07:16:31Z</time>
      </trkpt>
      <trkpt lat="48.71006" lon="2.04911">
        <ele>156</ele>
        <time>2020-08-11T07:16:43Z</time>
      </trkpt>
      <trkpt lat="48.70998" lon="2.04938">
        <ele>150</ele>
        <time>2020-08-11T07:16:56Z</time>
      </trkpt>
      <trkpt lat="48.70988" lon="2.04961">
        <ele>149</ele>
        <time>2020-08-11T07:17:08Z</time>
      </trkpt>
      <trkpt lat="48.7098" lon="2.04987">
        <ele>151</ele>
        <time>2020-08-11T07:17:22Z</time>
      </trkpt>
      <trkpt lat="48.7097" lon="2.05012">
        <ele>153</ele>
        <time>2020-08-11T07:17:37Z</time>
      </trkpt>
      <trkpt lat="48.70963" lon="2.05037">
        <ele>152</ele>
        <time>2020-08-11T07:17:50Z</time>
      </trkpt>
      <trkpt lat="48.70953" lon="2.05062">
        <ele>151</ele>
        <time>2020-08-11T07:18:03Z</time>
      </trkpt>
      <trkpt lat="48.70944" lon="2.05088">
        <ele>154</ele>
        <time>2020-08-11T07:18:17Z</time>
      </trkpt>
      <trkpt lat="48.70933" lon="2.0511">
        <ele>154</ele>
        <time>2020-08-11T07:18:30Z</time>
      </trkpt>
      <trkpt lat="48.7093" lon="2.05137">
        <ele>155</ele>
        <time>2020-08-11T07:19:47Z</time>
      </trkpt>
      <trkpt lat="48.70921" lon="2.05161">
        <ele>154</ele>
        <time>2020-08-11T07:20:08Z</time>
      </trkpt>
      <trkpt lat="48.70911" lon="2.05186">
        <ele>148</ele>
        <time>2020-08-11T07:20:23Z</time>
      </trkpt>
      <trkpt lat="48.70906" lon="2.05213">
        <ele>147</ele>
        <time>2020-08-11T07:20:36Z</time>
      </trkpt>
      <trkpt lat="48.70899" lon="2.05238">
        <ele>150</ele>
        <time>2020-08-11T07:20:49Z</time>
      </trkpt>
      <trkpt lat="48.70893" lon="2.05265">
        <ele>152</ele>
        <time>2020-08-11T07:21:02Z</time>
      </trkpt>
      <trkpt lat="48.70885" lon="2.0529">
        <ele>150</ele>
        <time>2020-08-11T07:21:15Z</time>
      </trkpt>
      <trkpt lat="48.7088" lon="2.05318">
        <ele>151</ele>
        <time>2020-08-11T07:21:28Z</time>
      </trkpt>
      <trkpt lat="48.70876" lon="2.05345">
        <ele>153</ele>
        <time>2020-08-11T07:21:40Z</time>
      </trkpt>
      <trkpt lat="48.70868" lon="2.0537">
        <ele>152</ele>
        <time>2020-08-11T07:21:53Z</time>
      </trkpt>
      <trkpt lat="48.70864" lon="2.05397">
        <ele>152</ele>
        <time>2020-08-11T07:22:07Z</time>
      </trkpt>
      <trkpt lat="48.70858" lon="2.05424">
        <ele>153</ele>
        <time>2020-08-11T07:22:20Z</time>
      </trkpt>
      <trkpt lat="48.70856" lon="2.05452">
        <ele>154</ele>
        <time>2020-08-11T07:22:33Z</time>
      </trkpt>
      <trkpt lat="48.70847" lon="2.05478">
        <ele>154</ele>
        <time>2020-08-11T07:22:51Z</time>
      </trkpt>
      <trkpt lat="48.70841" lon="2.05505">
        <ele>153</ele>
        <time>2020-08-11T07:23:06Z</time>
      </trkpt>
      <trkpt lat="48.70841" lon="2.05533">
        <ele>156</ele>
        <time>2020-08-11T07:23:22Z</time>
      </trkpt>
      <trkpt lat="48.70835" lon="2.0556">
        <ele>156</ele>
        <time>2020-08-11T07:23:35Z</time>
      </trkpt>
      <trkpt lat="48.70832" lon="2.05588">
        <ele>152</ele>
        <time>2020-08-11T07:23:48Z</time>
      </trkpt>
      <trkpt lat="48.70826" lon="2.05615">
        <ele>146</ele>
        <time>2020-08-11T07:24:00Z</time>
      </trkpt>
      <trkpt lat="48.70826" lon="2.05643">
        <ele>148</ele>
        <time>2020-08-11T07:24:14Z</time>
      </trkpt>
      <trkpt lat="48.70826" lon="2.05672">
        <ele>153</ele>
        <time>2020-08-11T07:24:29Z</time>
      </trkpt>
      <trkpt lat="48.70821" lon="2.05699">
        <ele>149</ele>
        <time>2020-08-11T07:24:42Z</time>
      </trkpt>
      <trkpt lat="48.70808" lon="2.05719">
        <ele>148</ele>
        <time>2020-08-11T07:24:56Z</time>
      </trkpt>
      <trkpt lat="48.70798" lon="2.05744">
        <ele>147</ele>
        <time>2020-08-11T07:25:09Z</time>
      </trkpt>
      <trkpt lat="48.70792" lon="2.05771">
        <ele>148</ele>
        <time>2020-08-11T07:25:21Z</time>
      </trkpt>
      <trkpt lat="48.70784" lon="2.05797">
        <ele>147</ele>
        <time>2020-08-11T07:25:34Z</time>
      </trkpt>
      <trkpt lat="48.70783" lon="2.05825">
        <ele>146</ele>
        <time>2020-08-11T07:25:47Z</time>
      </trkpt>
      <trkpt lat="48.70781" lon="2.05853">
        <ele>147</ele>
        <time>2020-08-11T07:26:00Z</time>
      </trkpt>
      <trkpt lat="48.70778" lon="2.0588">
        <ele>148</ele>
        <time>2020-08-11T07:26:13Z</time>
      </trkpt>
      <trkpt lat="48.70783" lon="2.05908">
        <ele>148</ele>
        <time>2020-08-11T07:26:28Z</time>
      </trkpt>
      <trkpt lat="48.70793" lon="2.05931">
        <ele>147</ele>
        <time>2020-08-11T07:26:42Z</time>
      </trkpt>
      <trkpt lat="48.70812" lon="2.05935">
        <ele>151</ele>
        <time>2020-08-11T07:27:10Z</time>
      </trkpt>
      <trkpt lat="48.7083" lon="2.05936">
        <ele>154</ele>
        <time>2020-08-11T07:27:26Z</time>
      </trkpt>
      <trkpt lat="48.70848" lon="2.05934">
        <ele>160</ele>
        <time>2020-08-11T07:27:46Z</time>
      </trkpt>
      <trkpt lat="48.70866" lon="2.05932">
        <ele>160</ele>
        <time>2020-08-11T07:28:01Z</time>
      </trkpt>
      <trkpt lat="48.70884" lon="2.05931">
        <ele>160</ele>
        <time>2020-08-11T07:28:15Z</time>
      </trkpt>
      <trkpt lat="48.70903" lon="2.05929">
        <ele>162</ele>
        <time>2020-08-11T07:28:28Z</time>
      </trkpt>
      <trkpt lat="48.70923" lon="2.05925">
        <ele>163</ele>
        <time>2020-08-11T07:28:41Z</time>
      </trkpt>
      <trkpt lat="48.70941" lon="2.05922">
        <ele>161</ele>
        <time>2020-08-11T07:28:54Z</time>
      </trkpt>
      <trkpt lat="48.70959" lon="2.0592">
        <ele>160</ele>
        <time>2020-08-11T07:29:07Z</time>
      </trkpt>
      <trkpt lat="48.70978" lon="2.05915">
        <ele>164</ele>
        <time>2020-08-11T07:29:19Z</time>
      </trkpt>
      <trkpt lat="48.70994" lon="2.05904">
        <ele>164</ele>
        <time>2020-08-11T07:29:31Z</time>
      </trkpt>
      <trkpt lat="48.71012" lon="2.05895">
        <ele>162</ele>
        <time>2020-08-11T07:29:43Z</time>
      </trkpt>
      <trkpt lat="48.71029" lon="2.05884">
        <ele>162</ele>
        <time>2020-08-11T07:29:56Z</time>
      </trkpt>
      <trkpt lat="48.71047" lon="2.05873">
        <ele>162</ele>
        <time>2020-08-11T07:30:09Z</time>
      </trkpt>
      <trkpt lat="48.71065" lon="2.05867">
        <ele>162</ele>
        <time>2020-08-11T07:30:21Z</time>
      </trkpt>
      <trkpt lat="48.71083" lon="2.05861">
        <ele>163</ele>
        <time>2020-08-11T07:30:34Z</time>
      </trkpt>
      <trkpt lat="48.71101" lon="2.05856">
        <ele>160</ele>
        <time>2020-08-11T07:30:47Z</time>
      </trkpt>
      <trkpt lat="48.71119" lon="2.05852">
        <ele>160</ele>
        <time>2020-08-11T07:30:59Z</time>
      </trkpt>
      <trkpt lat="48.71139" lon="2.05846">
        <ele>160</ele>
        <time>2020-08-11T07:31:12Z</time>
      </trkpt>
      <trkpt lat="48.71156" lon="2.05839">
        <ele>161</ele>
        <time>2020-08-11T07:31:24Z</time>
      </trkpt>
      <trkpt lat="48.71175" lon="2.05835">
        <ele>161</ele>
        <time>2020-08-11T07:31:37Z</time>
      </trkpt>
      <trkpt lat="48.71194" lon="2.05831">
        <ele>164</ele>
        <time>2020-08-11T07:31:51Z</time>
      </trkpt>
      <trkpt lat="48.71212" lon="2.05824">
        <ele>164</ele>
        <time>2020-08-11T07:32:04Z</time>
      </trkpt>
      <trkpt lat="48.71229" lon="2.05817">
        <ele>164</ele>
        <time>2020-08-11T07:32:16Z</time>
      </trkpt>
      <trkpt lat="48.71248" lon="2.05815">
        <ele>164</ele>
        <time>2020-08-11T07:32:30Z</time>
      </trkpt>
      <trkpt lat="48.71266" lon="2.0581">
        <ele>163</ele>
        <time>2020-08-11T07:32:45Z</time>
      </trkpt>
      <trkpt lat="48.71284" lon="2.05801">
        <ele>163</ele>
        <time>2020-08-11T07:33:42Z</time>
      </trkpt>
      <trkpt lat="48.71298" lon="2.05782">
        <ele>163</ele>
        <time>2020-08-11T07:33:56Z</time>
      </trkpt>
      <trkpt lat="48.71315" lon="2.05769">
        <ele>163</ele>
        <time>2020-08-11T07:34:08Z</time>
      </trkpt>
      <trkpt lat="48.71332" lon="2.05761">
        <ele>164</ele>
        <time>2020-08-11T07:34:21Z</time>
      </trkpt>
      <trkpt lat="48.7135" lon="2.05757">
        <ele>161</ele>
        <time>2020-08-11T07:34:33Z</time>
      </trkpt>
      <trkpt lat="48.71369" lon="2.05753">
        <ele>160</ele>
        <time>2020-08-11T07:34:46Z</time>
      </trkpt>
      <trkpt lat="48.71387" lon="2.0576">
        <ele>159</ele>
        <time>2020-08-11T07:34:59Z</time>
      </trkpt>
      <trkpt lat="48.71406" lon="2.05762">
        <ele>159</ele>
        <time>2020-08-11T07:35:14Z</time>
      </trkpt>
      <trkpt lat="48.71423" lon="2.05751">
        <ele>159</ele>
        <time>2020-08-11T07:35:27Z</time>
      </trkpt>
      <trkpt lat="48.71438" lon="2.05734">
        <ele>161</ele>
        <time>2020-08-11T07:35:42Z</time>
      </trkpt>
      <trkpt lat="48.71442" lon="2.05707">
        <ele>161</ele>
        <time>2020-08-11T07:35:58Z</time>
      </trkpt>
      <trkpt lat="48.71442" lon="2.05679">
        <ele>162</ele>
        <time>2020-08-11T07:36:12Z</time>
      </trkpt>
      <trkpt lat="48.71443" lon="2.05651">
        <ele>165</ele>
        <time>2020-08-11T07:36:25Z</time>
      </trkpt>
      <trkpt lat="48.7144" lon="2.05622">
        <ele>166</ele>
        <time>2020-08-11T07:36:39Z</time>
      </trkpt>
      <trkpt lat="48.7144" lon="2.05595">
        <ele>167</ele>
        <time>2020-08-11T07:37:05Z</time>
      </trkpt>
      <trkpt lat="48.71437" lon="2.05567">
        <ele>170</ele>
        <time>2020-08-11T07:40:53Z</time>
      </trkpt>
      <trkpt lat="48.71447" lon="2.05542">
        <ele>170</ele>
        <time>2020-08-11T07:41:22Z</time>
      </trkpt>
      <trkpt lat="48.71461" lon="2.05524">
        <ele>170</ele>
        <time>2020-08-11T07:41:37Z</time>
      </trkpt>
      <trkpt lat="48.71473" lon="2.05502">
        <ele>170</ele>
        <time>2020-08-11T07:41:52Z</time>
      </trkpt>
      <trkpt lat="48.71483" lon="2.0548">
        <ele>172</ele>
        <time>2020-08-11T07:42:03Z</time>
      </trkpt>
      <trkpt lat="48.71495" lon="2.05459">
        <ele>173</ele>
        <time>2020-08-11T07:42:16Z</time>
      </trkpt>
      <trkpt lat="48.71507" lon="2.05437">
        <ele>171</ele>
        <time>2020-08-11T07:42:28Z</time>
      </trkpt>
      <trkpt lat="48.7152" lon="2.05416">
        <ele>172</ele>
        <time>2020-08-11T07:42:41Z</time>
      </trkpt>
      <trkpt lat="48.71531" lon="2.05395">
        <ele>171</ele>
        <time>2020-08-11T07:42:57Z</time>
      </trkpt>
      <trkpt lat="48.71542" lon="2.05371">
        <ele>171</ele>
        <time>2020-08-11T07:43:10Z</time>
      </trkpt>
      <trkpt lat="48.71557" lon="2.05353">
        <ele>171</ele>
        <time>2020-08-11T07:43:23Z</time>
      </trkpt>
      <trkpt lat="48.71575" lon="2.05343">
        <ele>171</ele>
        <time>2020-08-11T07:43:38Z</time>
      </trkpt>
      <trkpt lat="48.71591" lon="2.05329">
        <ele>169</ele>
        <time>2020-08-11T07:43:50Z</time>
      </trkpt>
      <trkpt lat="48.71607" lon="2.05314">
        <ele>166</ele>
        <time>2020-08-11T07:44:04Z</time>
      </trkpt>
      <trkpt lat="48.71624" lon="2.05304">
        <ele>165</ele>
        <time>2020-08-11T07:44:17Z</time>
      </trkpt>
      <trkpt lat="48.71643" lon="2.05296">
        <ele>164</ele>
        <time>2020-08-11T07:44:29Z</time>
      </trkpt>
      <trkpt lat="48.7166" lon="2.05284">
        <ele>164</ele>
        <time>2020-08-11T07:44:40Z</time>
      </trkpt>
      <trkpt lat="48.71678" lon="2.05275">
        <ele>160</ele>
        <time>2020-08-11T07:44:51Z</time>
      </trkpt>
      <trkpt lat="48.71696" lon="2.05269">
        <ele>159</ele>
        <time>2020-08-11T07:45:05Z</time>
      </trkpt>
      <trkpt lat="48.71715" lon="2.05261">
        <ele>159</ele>
        <time>2020-08-11T07:45:18Z</time>
      </trkpt>
      <trkpt lat="48.71732" lon="2.05256">
        <ele>158</ele>
        <time>2020-08-11T07:45:30Z</time>
      </trkpt>
      <trkpt lat="48.71751" lon="2.05257">
        <ele>159</ele>
        <time>2020-08-11T07:45:43Z</time>
      </trkpt>
      <trkpt lat="48.7177" lon="2.0525">
        <ele>161</ele>
        <time>2020-08-11T07:45:56Z</time>
      </trkpt>
      <trkpt lat="48.71788" lon="2.05247">
        <ele>162</ele>
        <time>2020-08-11T07:46:13Z</time>
      </trkpt>
      <trkpt lat="48.71807" lon="2.05245">
        <ele>163</ele>
        <time>2020-08-11T07:46:26Z</time>
      </trkpt>
      <trkpt lat="48.71826" lon="2.05241">
        <ele>164</ele>
        <time>2020-08-11T07:46:41Z</time>
      </trkpt>
      <trkpt lat="48.71845" lon="2.0525">
        <ele>164</ele>
        <time>2020-08-11T07:46:55Z</time>
      </trkpt>
      <trkpt lat="48.71863" lon="2.05253">
        <ele>163</ele>
        <time>2020-08-11T07:47:10Z</time>
      </trkpt>
      <trkpt lat="48.71882" lon="2.05258">
        <ele>162</ele>
        <time>2020-08-11T07:47:20Z</time>
      </trkpt>
      <trkpt lat="48.71901" lon="2.05259">
        <ele>161</ele>
        <time>2020-08-11T07:47:30Z</time>
      </trkpt>
      <trkpt lat="48.71919" lon="2.0526">
        <ele>162</ele>
        <time>2020-08-11T07:47:40Z</time>
      </trkpt>
      <trkpt lat="48.71938" lon="2.05262">
        <ele>162</ele>
        <time>2020-08-11T07:47:50Z</time>
      </trkpt>
      <trkpt lat="48.71953" lon="2.05277">
        <ele>163</ele>
        <time>2020-08-11T07:48:05Z</time>
      </trkpt>
      <trkpt lat="48.71967" lon="2.05298">
        <ele>163</ele>
        <time>2020-08-11T07:48:21Z</time>
      </trkpt>
      <trkpt lat="48.7198" lon="2.05317">
        <ele>163</ele>
        <time>2020-08-11T07:48:45Z</time>
      </trkpt>
      <trkpt lat="48.71996" lon="2.0533">
        <ele>163</ele>
        <time>2020-08-11T07:49:28Z</time>
      </trkpt>
      <trkpt lat="48.7201" lon="2.05347">
        <ele>162</ele>
        <time>2020-08-11T07:49:51Z</time>
      </trkpt>
      <trkpt lat="48.72025" lon="2.05364">
        <ele>160</ele>
        <time>2020-08-11T07:50:11Z</time>
      </trkpt>
      <trkpt lat="48.72038" lon="2.05384">
        <ele>160</ele>
        <time>2020-08-11T07:50:27Z</time>
      </trkpt>
      <trkpt lat="48.72048" lon="2.05407">
        <ele>159</ele>
        <time>2020-08-11T07:50:41Z</time>
      </trkpt>
      <trkpt lat="48.72063" lon="2.05426">
        <ele>153</ele>
        <time>2020-08-11T07:50:54Z</time>
      </trkpt>
      <trkpt lat="48.72079" lon="2.05441">
        <ele>152</ele>
        <time>2020-08-11T07:51:07Z</time>
      </trkpt>
      <trkpt lat="48.72096" lon="2.05455">
        <ele>146</ele>
        <time>2020-08-11T07:51:20Z</time>
      </trkpt>
      <trkpt lat="48.72113" lon="2.05465">
        <ele>144</ele>
        <time>2020-08-11T07:51:30Z</time>
      </trkpt>
      <trkpt lat="48.72128" lon="2.05479">
        <ele>142</ele>
        <time>2020-08-11T07:51:45Z</time>
      </trkpt>
      <trkpt lat="48.72147" lon="2.05486">
        <ele>140</ele>
        <time>2020-08-11T07:52:03Z</time>
      </trkpt>
      <trkpt lat="48.72165" lon="2.05479">
        <ele>140</ele>
        <time>2020-08-11T07:52:18Z</time>
      </trkpt>
      <trkpt lat="48.72177" lon="2.05459">
        <ele>134</ele>
        <time>2020-08-11T07:52:34Z</time>
      </trkpt>
      <trkpt lat="48.72192" lon="2.05441">
        <ele>134</ele>
        <time>2020-08-11T07:52:48Z</time>
      </trkpt>
      <trkpt lat="48.72208" lon="2.05426">
        <ele>132</ele>
        <time>2020-08-11T07:53:04Z</time>
      </trkpt>
      <trkpt lat="48.72222" lon="2.05407">
        <ele>138</ele>
        <time>2020-08-11T07:53:19Z</time>
      </trkpt>
      <trkpt lat="48.72236" lon="2.05389">
        <ele>138</ele>
        <time>2020-08-11T07:53:35Z</time>
      </trkpt>
      <trkpt lat="48.72249" lon="2.05367">
        <ele>140</ele>
        <time>2020-08-11T07:53:46Z</time>
      </trkpt>
      <trkpt lat="48.72263" lon="2.05348">
        <ele>130</ele>
        <time>2020-08-11T07:53:58Z</time>
      </trkpt>
      <trkpt lat="48.72273" lon="2.05326">
        <ele>136</ele>
        <time>2020-08-11T07:54:11Z</time>
      </trkpt>
      <trkpt lat="48.72281" lon="2.053">
        <ele>135</ele>
        <time>2020-08-11T07:54:26Z</time>
      </trkpt>
      <trkpt lat="48.72291" lon="2.05278">
        <ele>135</ele>
        <time>2020-08-11T07:54:41Z</time>
      </trkpt>
      <trkpt lat="48.72303" lon="2.05253">
        <ele>134</ele>
        <time>2020-08-11T07:54:56Z</time>
      </trkpt>
      <trkpt lat="48.7231" lon="2.05226">
        <ele>138</ele>
        <time>2020-08-11T07:55:13Z</time>
      </trkpt>
      <trkpt lat="48.72319" lon="2.05202">
        <ele>138</ele>
        <time>2020-08-11T07:55:25Z</time>
      </trkpt>
      <trkpt lat="48.72321" lon="2.05173">
        <ele>135</ele>
        <time>2020-08-11T07:55:40Z</time>
      </trkpt>
      <trkpt lat="48.72324" lon="2.05145">
        <ele>136</ele>
        <time>2020-08-11T07:55:53Z</time>
      </trkpt>
      <trkpt lat="48.72323" lon="2.05117">
        <ele>136</ele>
        <time>2020-08-11T07:56:04Z</time>
      </trkpt>
      <trkpt lat="48.7232" lon="2.0509">
        <ele>131</ele>
        <time>2020-08-11T07:56:19Z</time>
      </trkpt>
      <trkpt lat="48.7231" lon="2.05065">
        <ele>131</ele>
        <time>2020-08-11T07:56:33Z</time>
      </trkpt>
      <trkpt lat="48.72304" lon="2.05036">
        <ele>131</ele>
        <time>2020-08-11T07:56:44Z</time>
      </trkpt>
      <trkpt lat="48.72297" lon="2.0501">
        <ele>131</ele>
        <time>2020-08-11T07:56:55Z</time>
      </trkpt>
      <trkpt lat="48.72285" lon="2.04988">
        <ele>128</ele>
        <time>2020-08-11T07:57:07Z</time>
      </trkpt>
      <trkpt lat="48.72277" lon="2.04963">
        <ele>128</ele>
        <time>2020-08-11T07:57:19Z</time>
      </trkpt>
      <trkpt lat="48.72263" lon="2.04944">
        <ele>129</ele>
        <time>2020-08-11T07:57:32Z</time>
      </trkpt>
      <trkpt lat="48.72248" lon="2.0493">
        <ele>139</ele>
        <time>2020-08-11T07:57:45Z</time>
      </trkpt>
      <trkpt lat="48.72247" lon="2.04902">
        <ele>138</ele>
        <time>2020-08-11T07:58:00Z</time>
      </trkpt>
      <trkpt lat="48.72248" lon="2.04875">
        <ele>141</ele>
        <time>2020-08-11T07:58:57Z</time>
      </trkpt>
      <trkpt lat="48.72258" lon="2.04851">
        <ele>130</ele>
        <time>2020-08-11T08:00:12Z</time>
      </trkpt>
      <trkpt lat="48.72256" lon="2.04822">
        <ele>132</ele>
        <time>2020-08-11T08:00:29Z</time>
      </trkpt>
      <trkpt lat="48.72248" lon="2.04797">
        <ele>137</ele>
        <time>2020-08-11T08:00:47Z</time>
      </trkpt>
      <trkpt lat="48.72237" lon="2.04775">
        <ele>137</ele>
        <time>2020-08-11T08:01:02Z</time>
      </trkpt>
      <trkpt lat="48.72231" lon="2.04748">
        <ele>134</ele>
        <time>2020-08-11T08:01:16Z</time>
      </trkpt>
      <trkpt lat="48.72234" lon="2.04721">
        <ele>135</ele>
        <time>2020-08-11T08:01:28Z</time>
      </trkpt>
      <trkpt lat="48.72229" lon="2.04694">
        <ele>135</ele>
        <time>2020-08-11T08:01:48Z</time>
      </trkpt>
      <trkpt lat="48.72214" lon="2.04678">
        <ele>136</ele>
        <time>2020-08-11T08:02:40Z</time>
      </trkpt>
      <trkpt lat="48.72205" lon="2.04653">
        <ele>138</ele>
        <time>2020-08-11T08:02:55Z</time>
      </trkpt>
      <trkpt lat="48.72201" lon="2.04626">
        <ele>138</ele>
        <time>2020-08-11T08:03:17Z</time>
      </trkpt>
      <trkpt lat="48.72207" lon="2.046">
        <ele>138</ele>
        <time>2020-08-11T08:03:38Z</time>
      </trkpt>
      <trkpt lat="48.72197" lon="2.04577">
        <ele>141</ele>
        <time>2020-08-11T08:03:54Z</time>
      </trkpt>
      <trkpt lat="48.72191" lon="2.04551">
        <ele>140</ele>
        <time>2020-08-11T08:04:07Z</time>
      </trkpt>
      <trkpt lat="48.72184" lon="2.04523">
        <ele>141</ele>
        <time>2020-08-11T08:04:19Z</time>
      </trkpt>
      <trkpt lat="48.72173" lon="2.045">
        <ele>145</ele>
        <time>2020-08-11T08:04:33Z</time>
      </trkpt>
      <trkpt lat="48.72179" lon="2.04472">
        <ele>146</ele>
        <time>2020-08-11T08:04:45Z</time>
      </trkpt>
      <trkpt lat="48.72188" lon="2.04446">
        <ele>147</ele>
        <time>2020-08-11T08:05:11Z</time>
      </trkpt>
      <trkpt lat="48.72207" lon="2.04455">
        <ele>145</ele>
        <time>2020-08-11T08:05:28Z</time>
      </trkpt>
      <trkpt lat="48.72226" lon="2.0446">
        <ele>143</ele>
        <time>2020-08-11T08:05:42Z</time>
      </trkpt>
      <trkpt lat="48.72243" lon="2.04453">
        <ele>143</ele>
        <time>2020-08-11T08:05:54Z</time>
      </trkpt>
      <trkpt lat="48.72258" lon="2.04435">
        <ele>138</ele>
        <time>2020-08-11T08:06:09Z</time>
      </trkpt>
      <trkpt lat="48.72273" lon="2.04419">
        <ele>137</ele>
        <time>2020-08-11T08:06:22Z</time>
      </trkpt>
      <trkpt lat="48.72291" lon="2.0441">
        <ele>142</ele>
        <time>2020-08-11T08:06:34Z</time>
      </trkpt>
      <trkpt lat="48.72309" lon="2.04408">
        <ele>139</ele>
        <time>2020-08-11T08:06:46Z</time>
      </trkpt>
      <trkpt lat="48.72328" lon="2.04406">
        <ele>137</ele>
        <time>2020-08-11T08:06:59Z</time>
      </trkpt>
      <trkpt lat="48.72345" lon="2.04398">
        <ele>127</ele>
        <time>2020-08-11T08:07:13Z</time>
      </trkpt>
      <trkpt lat="48.72356" lon="2.04374">
        <ele>125</ele>
        <time>2020-08-11T08:07:33Z</time>
      </trkpt>
      <trkpt lat="48.72365" lon="2.0435">
        <ele>125</ele>
        <time>2020-08-11T08:07:54Z</time>
      </trkpt>
      <trkpt lat="48.72367" lon="2.04323">
        <ele>127</ele>
        <time>2020-08-11T08:10:09Z</time>
      </trkpt>
      <trkpt lat="48.72377" lon="2.04299">
        <ele>126</ele>
        <time>2020-08-11T08:10:27Z</time>
      </trkpt>
      <trkpt lat="48.72385" lon="2.04274">
        <ele>126</ele>
        <time>2020-08-11T08:10:39Z</time>
      </trkpt>
      <trkpt lat="48.72398" lon="2.04252">
        <ele>124</ele>
        <time>2020-08-11T08:10:51Z</time>
      </trkpt>
      <trkpt lat="48.72416" lon="2.04246">
        <ele>123</ele>
        <time>2020-08-11T08:11:03Z</time>
      </trkpt>
      <trkpt lat="48.72431" lon="2.04232">
        <ele>120</ele>
        <time>2020-08-11T08:11:15Z</time>
      </trkpt>
      <trkpt lat="48.72446" lon="2.04216">
        <ele>120</ele>
        <time>2020-08-11T08:11:29Z</time>
      </trkpt>
      <trkpt lat="48.72458" lon="2.04192">
        <ele>121</ele>
        <time>2020-08-11T08:11:43Z</time>
      </trkpt>
      <trkpt lat="48.7247" lon="2.0417">
        <ele>120</ele>
        <time>2020-08-11T08:11:56Z</time>
      </trkpt>
      <trkpt lat="48.72487" lon="2.04158">
        <ele>124</ele>
        <time>2020-08-11T08:12:09Z</time>
      </trkpt>
      <trkpt lat="48.72501" lon="2.04141">
        <ele>117</ele>
        <time>2020-08-11T08:12:21Z</time>
      </trkpt>
      <trkpt lat="48.72519" lon="2.04129">
        <ele>116</ele>
        <time>2020-08-11T08:12:36Z</time>
      </trkpt>
      <trkpt lat="48.72528" lon="2.04103">
        <ele>117</ele>
        <time>2020-08-11T08:12:52Z</time>
      </trkpt>
      <trkpt lat="48.72538" lon="2.04078">
        <ele>121</ele>
        <time>2020-08-11T08:13:07Z</time>
      </trkpt>
      <trkpt lat="48.72554" lon="2.04065">
        <ele>119</ele>
        <time>2020-08-11T08:13:19Z</time>
      </trkpt>
      <trkpt lat="48.72565" lon="2.04042">
        <ele>119</ele>
        <time>2020-08-11T08:13:32Z</time>
      </trkpt>
      <trkpt lat="48.72579" lon="2.04021">
        <ele>118</ele>
        <time>2020-08-11T08:13:45Z</time>
      </trkpt>
      <trkpt lat="48.72591" lon="2.04">
        <ele>114</ele>
        <time>2020-08-11T08:13:58Z</time>
      </trkpt>
      <trkpt lat="48.72604" lon="2.0398">
        <ele>113</ele>
        <time>2020-08-11T08:14:12Z</time>
      </trkpt>
      <trkpt lat="48.72613" lon="2.03955">
        <ele>114</ele>
        <time>2020-08-11T08:14:28Z</time>
      </trkpt>
      <trkpt lat="48.7261" lon="2.03927">
        <ele>116</ele>
        <time>2020-08-11T08:14:45Z</time>
      </trkpt>
      <trkpt lat="48.72606" lon="2.03899">
        <ele>119</ele>
        <time>2020-08-11T08:14:58Z</time>
      </trkpt>
      <trkpt lat="48.72603" lon="2.03871">
        <ele>119</ele>
        <time>2020-08-11T08:15:11Z</time>
      </trkpt>
      <trkpt lat="48.72596" lon="2.03844">
        <ele>122</ele>
        <time>2020-08-11T08:15:26Z</time>
      </trkpt>
      <trkpt lat="48.726" lon="2.03818">
        <ele>121</ele>
        <time>2020-08-11T08:18:14Z</time>
      </trkpt>
      <trkpt lat="48.72594" lon="2.03792">
        <ele>119</ele>
        <time>2020-08-11T08:18:38Z</time>
      </trkpt>
      <trkpt lat="48.72584" lon="2.03769">
        <ele>120</ele>
        <time>2020-08-11T08:18:53Z</time>
      </trkpt>
      <trkpt lat="48.72574" lon="2.03744">
        <ele>126</ele>
        <time>2020-08-11T08:19:07Z</time>
      </trkpt>
      <trkpt lat="48.72565" lon="2.0372">
        <ele>128</ele>
        <time>2020-08-11T08:19:19Z</time>
      </trkpt>
      <trkpt lat="48.72554" lon="2.03695">
        <ele>128</ele>
        <time>2020-08-11T08:19:35Z</time>
      </trkpt>
      <trkpt lat="48.72543" lon="2.03673">
        <ele>129</ele>
        <time>2020-08-11T08:19:49Z</time>
      </trkpt>
      <trkpt lat="48.72532" lon="2.03651">
        <ele>127</ele>
        <time>2020-08-11T08:20:03Z</time>
      </trkpt>
      <trkpt lat="48.72521" lon="2.03626">
        <ele>127</ele>
        <time>2020-08-11T08:20:15Z</time>
      </trkpt>
      <trkpt lat="48.72507" lon="2.03605">
        <ele>128</ele>
        <time>2020-08-11T08:20:27Z</time>
      </trkpt>
      <trkpt lat="48.72499" lon="2.0358">
        <ele>132</ele>
        <time>2020-08-11T08:20:38Z</time>
      </trkpt>
      <trkpt lat="48.72489" lon="2.03556">
        <ele>139</ele>
        <time>2020-08-11T08:20:51Z</time>
      </trkpt>
      <trkpt lat="48.72478" lon="2.03533">
        <ele>141</ele>
        <time>2020-08-11T08:21:06Z</time>
      </trkpt>
      <trkpt lat="48.72468" lon="2.0351">
        <ele>142</ele>
        <time>2020-08-11T08:21:20Z</time>
      </trkpt>
      <trkpt lat="48.72461" lon="2.03485">
        <ele>145</ele>
        <time>2020-08-11T08:21:35Z</time>
      </trkpt>
      <trkpt lat="48.7245" lon="2.03463">
        <ele>147</ele>
        <time>2020-08-11T08:21:50Z</time>
      </trkpt>
      <trkpt lat="48.72439" lon="2.03439">
        <ele>149</ele>
        <time>2020-08-11T08:22:04Z</time>
      </trkpt>
      <trkpt lat="48.72428" lon="2.03415">
        <ele>154</ele>
        <time>2020-08-11T08:22:19Z</time>
      </trkpt>
      <trkpt lat="48.72418" lon="2.03392">
        <ele>153</ele>
        <time>2020-08-11T08:22:32Z</time>
      </trkpt>
      <trkpt lat="48.72407" lon="2.03369">
        <ele>162</ele>
        <time>2020-08-11T08:22:54Z</time>
      </trkpt>
      <trkpt lat="48.72399" lon="2.03344">
        <ele>162</ele>
        <time>2020-08-11T08:23:11Z</time>
      </trkpt>
      <trkpt lat="48.72387" lon="2.03322">
        <ele>163</ele>
        <time>2020-08-11T08:23:30Z</time>
      </trkpt>
      <trkpt lat="48.72378" lon="2.03297">
        <ele>163</ele>
        <time>2020-08-11T08:23:54Z</time>
      </trkpt>
      <trkpt lat="48.72369" lon="2.03273">
        <ele>164</ele>
        <time>2020-08-11T08:24:12Z</time>
      </trkpt>
      <trkpt lat="48.72357" lon="2.03253">
        <ele>165</ele>
        <time>2020-08-11T08:26:11Z</time>
      </trkpt>
      <trkpt lat="48.72346" lon="2.03229">
        <ele>164</ele>
        <time>2020-08-11T08:26:33Z</time>
      </trkpt>
      <trkpt lat="48.72336" lon="2.03207">
        <ele>164</ele>
        <time>2020-08-11T08:26:46Z</time>
      </trkpt>
      <trkpt lat="48.72325" lon="2.03183">
        <ele>169</ele>
        <time>2020-08-11T08:27:01Z</time>
      </trkpt>
      <trkpt lat="48.72314" lon="2.0316">
        <ele>168</ele>
        <time>2020-08-11T08:27:15Z</time>
      </trkpt>
      <trkpt lat="48.723" lon="2.03142">
        <ele>168</ele>
        <time>2020-08-11T08:27:29Z</time>
      </trkpt>
      <trkpt lat="48.72288" lon="2.03122">
        <ele>168</ele>
        <time>2020-08-11T08:27:43Z</time>
      </trkpt>
      <trkpt lat="48.72273" lon="2.03104">
        <ele>168</ele>
        <time>2020-08-11T08:27:55Z</time>
      </trkpt>
      <trkpt lat="48.72262" lon="2.03081">
        <ele>167</ele>
        <time>2020-08-11T08:28:08Z</time>
      </trkpt>
      <trkpt lat="48.72248" lon="2.03059">
        <ele>169</ele>
        <time>2020-08-11T08:28:22Z</time>
      </trkpt>
      <trkpt lat="48.72235" lon="2.03039">
        <ele>168</ele>
        <time>2020-08-11T08:28:35Z</time>
      </trkpt>
      <trkpt lat="48.72223" lon="2.03018">
        <ele>168</ele>
        <time>2020-08-11T08:28:47Z</time>
      </trkpt>
      <trkpt lat="48.72214" lon="2.02992">
        <ele>167</ele>
        <time>2020-08-11T08:28:59Z</time>
      </trkpt>
      <trkpt lat="48.72204" lon="2.02968">
        <ele>167</ele>
        <time>2020-08-11T08:29:13Z</time>
      </trkpt>
      <trkpt lat="48.72207" lon="2.02941">
        <ele>167</ele>
        <time>2020-08-11T08:29:36Z</time>
      </trkpt>
      <trkpt lat="48.72193" lon="2.02922">
        <ele>167</ele>
        <time>2020-08-11T08:31:17Z</time>
      </trkpt>
      <trkpt lat="48.72175" lon="2.02921">
        <ele>168</ele>
        <time>2020-08-11T08:31:41Z</time>
      </trkpt>
      <trkpt lat="48.72157" lon="2.02929">
        <ele>169</ele>
        <time>2020-08-11T08:31:57Z</time>
      </trkpt>
      <trkpt lat="48.72139" lon="2.02938">
        <ele>170</ele>
        <time>2020-08-11T08:32:12Z</time>
      </trkpt>
      <trkpt lat="48.72121" lon="2.02944">
        <ele>170</ele>
        <time>2020-08-11T08:32:24Z</time>
      </trkpt>
      <trkpt lat="48.72102" lon="2.02951">
        <ele>170</ele>
        <time>2020-08-11T08:32:36Z</time>
      </trkpt>
      <trkpt lat="48.72083" lon="2.02957">
        <ele>170</ele>
        <time>2020-08-11T08:32:50Z</time>
      </trkpt>
      <trkpt lat="48.72066" lon="2.02962">
        <ele>172</ele>
        <time>2020-08-11T08:33:11Z</time>
      </trkpt>
      <trkpt lat="48.72047" lon="2.02964">
        <ele>172</ele>
        <time>2020-08-11T08:33:32Z</time>
      </trkpt>
      <trkpt lat="48.72029" lon="2.02973">
        <ele>173</ele>
        <time>2020-08-11T08:34:08Z</time>
      </trkpt>
      <trkpt lat="48.72011" lon="2.02977">
        <ele>174</ele>
        <time>2020-08-11T08:34:29Z</time>
      </trkpt>
      <trkpt lat="48.71993" lon="2.02982">
        <ele>175</ele>
        <time>2020-08-11T08:34:43Z</time>
      </trkpt>
      <trkpt lat="48.71974" lon="2.02982">
        <ele>175</ele>
        <time>2020-08-11T08:34:57Z</time>
      </trkpt>
      <trkpt lat="48.71955" lon="2.02987">
        <ele>175</ele>
        <time>2020-08-11T08:35:11Z</time>
      </trkpt>
      <trkpt lat="48.71937" lon="2.02989">
        <ele>176</ele>
        <time>2020-08-11T08:35:23Z</time>
      </trkpt>
      <trkpt lat="48.71918" lon="2.0299">
        <ele>176</ele>
        <time>2020-08-11T08:35:34Z</time>
      </trkpt>
      <trkpt lat="48.71899" lon="2.02993">
        <ele>176</ele>
        <time>2020-08-11T08:35:48Z</time>
      </trkpt>
      <trkpt lat="48.71881" lon="2.02994">
        <ele>176</ele>
        <time>2020-08-11T08:36:02Z</time>
      </trkpt>
      <trkpt lat="48.71862" lon="2.02996">
        <ele>176</ele>
        <time>2020-08-11T08:36:18Z</time>
      </trkpt>
      <trkpt lat="48.71844" lon="2.02999">
        <ele>177</ele>
        <time>2020-08-11T08:36:31Z</time>
      </trkpt>
      <trkpt lat="48.71826" lon="2.03005">
        <ele>177</ele>
        <time>2020-08-11T08:36:45Z</time>
      </trkpt>
      <trkpt lat="48.71807" lon="2.03005">
        <ele>177</ele>
        <time>2020-08-11T08:37:01Z</time>
      </trkpt>
      <trkpt lat="48.71789" lon="2.03001">
        <ele>176</ele>
        <time>2020-08-11T08:37:37Z</time>
      </trkpt>
      <trkpt lat="48.71769" lon="2.03002">
        <ele>176</ele>
        <time>2020-08-11T08:37:55Z</time>
      </trkpt>
      <trkpt lat="48.71751" lon="2.03005">
        <ele>175</ele>
        <time>2020-08-11T08:38:10Z</time>
      </trkpt>
      <trkpt lat="48.71732" lon="2.03006">
        <ele>176</ele>
        <time>2020-08-11T08:38:26Z</time>
      </trkpt>
      <trkpt lat="48.71713" lon="2.03008">
        <ele>176</ele>
        <time>2020-08-11T08:38:37Z</time>
      </trkpt>
      <trkpt lat="48.71694" lon="2.03011">
        <ele>176</ele>
        <time>2020-08-11T08:38:50Z</time>
      </trkpt>
      <trkpt lat="48.71675" lon="2.03011">
        <ele>175</ele>
        <time>2020-08-11T08:39:03Z</time>
      </trkpt>
      <trkpt lat="48.71657" lon="2.03013">
        <ele>175</ele>
        <time>2020-08-11T08:39:14Z</time>
      </trkpt>
      <trkpt lat="48.71639" lon="2.03018">
        <ele>175</ele>
        <time>2020-08-11T08:39:29Z</time>
      </trkpt>
      <trkpt lat="48.7162" lon="2.03021">
        <ele>175</ele>
        <time>2020-08-11T08:39:42Z</time>
      </trkpt>
      <trkpt lat="48.71601" lon="2.03024">
        <ele>175</ele>
        <time>2020-08-11T08:39:54Z</time>
      </trkpt>
      <trkpt lat="48.71583" lon="2.03028">
        <ele>173</ele>
        <time>2020-08-11T08:40:08Z</time>
      </trkpt>
      <trkpt lat="48.71565" lon="2.03033">
        <ele>172</ele>
        <time>2020-08-11T08:40:19Z</time>
      </trkpt>
      <trkpt lat="48.71546" lon="2.03037">
        <ele>172</ele>
        <time>2020-08-11T08:40:31Z</time>
      </trkpt>
      <trkpt lat="48.71528" lon="2.03041">
        <ele>171</ele>
        <time>2020-08-11T08:40:44Z</time>
      </trkpt>
      <trkpt lat="48.7151" lon="2.0305">
        <ele>171</ele>
        <time>2020-08-11T08:40:57Z</time>
      </trkpt>
      <trkpt lat="48.71491" lon="2.03055">
        <ele>165</ele>
        <time>2020-08-11T08:41:09Z</time>
      </trkpt>
      <trkpt lat="48.71473" lon="2.03061">
        <ele>164</ele>
        <time>2020-08-11T08:41:20Z</time>
      </trkpt>
      <trkpt lat="48.71456" lon="2.03073">
        <ele>162</ele>
        <time>2020-08-11T08:41:35Z</time>
      </trkpt>
      <trkpt lat="48.71437" lon="2.03072">
        <ele>160</ele>
        <time>2020-08-11T08:41:50Z</time>
      </trkpt>
      <trkpt lat="48.71419" lon="2.03074">
        <ele>159</ele>
        <time>2020-08-11T08:42:08Z</time>
      </trkpt>
      <trkpt lat="48.71402" lon="2.03083">
        <ele>150</ele>
        <time>2020-08-11T08:42:23Z</time>
      </trkpt>
      <trkpt lat="48.71392" lon="2.03106">
        <ele>147</ele>
        <time>2020-08-11T08:42:46Z</time>
      </trkpt>
      <trkpt lat="48.71385" lon="2.03131">
        <ele>145</ele>
        <time>2020-08-11T08:43:13Z</time>
      </trkpt>
      <trkpt lat="48.71371" lon="2.03149">
        <ele>143</ele>
        <time>2020-08-11T08:43:43Z</time>
      </trkpt>
      <trkpt lat="48.71356" lon="2.03166">
        <ele>140</ele>
        <time>2020-08-11T08:44:00Z</time>
      </trkpt>
      <trkpt lat="48.71341" lon="2.03179">
        <ele>137</ele>
        <time>2020-08-11T08:44:17Z</time>
      </trkpt>
      <trkpt lat="48.71327" lon="2.03199">
        <ele>124</ele>
        <time>2020-08-11T08:44:32Z</time>
      </trkpt>
      <trkpt lat="48.71315" lon="2.0322">
        <ele>123</ele>
        <time>2020-08-11T08:44:45Z</time>
      </trkpt>
      <trkpt lat="48.71301" lon="2.03237">
        <ele>121</ele>
        <time>2020-08-11T08:45:00Z</time>
      </trkpt>
      <trkpt lat="48.71294" lon="2.03263">
        <ele>120</ele>
        <time>2020-08-11T08:45:11Z</time>
      </trkpt>
      <trkpt lat="48.7128" lon="2.03283">
        <ele>118</ele>
        <time>2020-08-11T08:45:23Z</time>
      </trkpt>
      <trkpt lat="48.71271" lon="2.03307">
        <ele>116</ele>
        <time>2020-08-11T08:45:36Z</time>
      </trkpt>
      <trkpt lat="48.71264" lon="2.03334">
        <ele>114</ele>
        <time>2020-08-11T08:45:50Z</time>
      </trkpt>
      <trkpt lat="48.71256" lon="2.0336">
        <ele>117</ele>
        <time>2020-08-11T08:46:03Z</time>
      </trkpt>
      <trkpt lat="48.71241" lon="2.03375">
        <ele>108</ele>
        <time>2020-08-11T08:46:18Z</time>
      </trkpt>
      <trkpt lat="48.71223" lon="2.03381">
        <ele>107</ele>
        <time>2020-08-11T08:46:34Z</time>
      </trkpt>
      <trkpt lat="48.71205" lon="2.03387">
        <ele>107</ele>
        <time>2020-08-11T08:46:47Z</time>
      </trkpt>
      <trkpt lat="48.71186" lon="2.0339">
        <ele>106</ele>
        <time>2020-08-11T08:47:00Z</time>
      </trkpt>
      <trkpt lat="48.71167" lon="2.03392">
        <ele>105</ele>
        <time>2020-08-11T08:47:20Z</time>
      </trkpt>
      <trkpt lat="48.71149" lon="2.03398">
        <ele>100</ele>
        <time>2020-08-11T08:47:34Z</time>
      </trkpt>
      <trkpt lat="48.71132" lon="2.03406">
        <ele>99</ele>
        <time>2020-08-11T08:47:47Z</time>
      </trkpt>
      <trkpt lat="48.71115" lon="2.03418">
        <ele>104</ele>
        <time>2020-08-11T08:48:00Z</time>
      </trkpt>
      <trkpt lat="48.71099" lon="2.03434">
        <ele>103</ele>
        <time>2020-08-11T08:48:14Z</time>
      </trkpt>
      <trkpt lat="48.71084" lon="2.03453">
        <ele>105</ele>
        <time>2020-08-11T08:48:26Z</time>
      </trkpt>
      <trkpt lat="48.71068" lon="2.0347">
        <ele>99</ele>
        <time>2020-08-11T08:48:38Z</time>
      </trkpt>
      <trkpt lat="48.71056" lon="2.03492">
        <ele>100</ele>
        <time>2020-08-11T08:48:50Z</time>
      </trkpt>
      <trkpt lat="48.71043" lon="2.03514">
        <ele>101</ele>
        <time>2020-08-11T08:49:02Z</time>
      </trkpt>
      <trkpt lat="48.71033" lon="2.03538">
        <ele>100</ele>
        <time>2020-08-11T08:49:14Z</time>
      </trkpt>
      <trkpt lat="48.71028" lon="2.03565">
        <ele>100</ele>
        <time>2020-08-11T08:49:26Z</time>
      </trkpt>
      <trkpt lat="48.71022" lon="2.03592">
        <ele>102</ele>
        <time>2020-08-11T08:49:39Z</time>
      </trkpt>
      <trkpt lat="48.71016" lon="2.03618">
        <ele>103</ele>
        <time>2020-08-11T08:49:51Z</time>
      </trkpt>
      <trkpt lat="48.71007" lon="2.03643">
        <ele>102</ele>
        <time>2020-08-11T08:50:04Z</time>
      </trkpt>
      <trkpt lat="48.70999" lon="2.03668">
        <ele>96</ele>
        <time>2020-08-11T08:50:18Z</time>
      </trkpt>
      <trkpt lat="48.70989" lon="2.03694">
        <ele>95</ele>
        <time>2020-08-11T08:50:31Z</time>
      </trkpt>
      <trkpt lat="48.70978" lon="2.03718">
        <ele>95</ele>
        <time>2020-08-11T08:50:44Z</time>
      </trkpt>
      <trkpt lat="48.70967" lon="2.03741">
        <ele>95</ele>
        <time>2020-08-11T08:50:57Z</time>
      </trkpt>
      <trkpt lat="48.70956" lon="2.03765">
        <ele>96</ele>
        <time>2020-08-11T08:51:10Z</time>
      </trkpt>
      <trkpt lat="48.70944" lon="2.03788">
        <ele>95</ele>
        <time>2020-08-11T08:51:22Z</time>
      </trkpt>
      <trkpt lat="48.70927" lon="2.03778">
        <ele>94</ele>
        <time>2020-08-11T08:51:40Z</time>
      </trkpt>
      <trkpt lat="48.70919" lon="2.03754">
        <ele>89</ele>
        <time>2020-08-11T08:51:53Z</time>
      </trkpt>
      <trkpt lat="48.70908" lon="2.0373">
        <ele>87</ele>
        <time>2020-08-11T08:52:05Z</time>
      </trkpt>
      <trkpt lat="48.70899" lon="2.03706">
        <ele>87</ele>
        <time>2020-08-11T08:52:18Z</time>
      </trkpt>
      <trkpt lat="48.70884" lon="2.0369">
        <ele>86</ele>
        <time>2020-08-11T08:52:51Z</time>
      </trkpt>
      <trkpt lat="48.70865" lon="2.03691">
        <ele>86</ele>
        <time>2020-08-11T08:53:07Z</time>
      </trkpt>
      <trkpt lat="48.70848" lon="2.03702">
        <ele>85</ele>
        <time>2020-08-11T08:53:20Z</time>
      </trkpt>
      <trkpt lat="48.70831" lon="2.03716">
        <ele>83</ele>
        <time>2020-08-11T08:53:36Z</time>
      </trkpt>
      <trkpt lat="48.70814" lon="2.03726">
        <ele>83</ele>
        <time>2020-08-11T08:53:51Z</time>
      </trkpt>
      <trkpt lat="48.70795" lon="2.0373">
        <ele>83</ele>
        <time>2020-08-11T08:54:05Z</time>
      </trkpt>
      <trkpt lat="48.70777" lon="2.03734">
        <ele>83</ele>
        <time>2020-08-11T08:54:20Z</time>
      </trkpt>
      <trkpt lat="48.70758" lon="2.03734">
        <ele>82</ele>
        <time>2020-08-11T08:55:07Z</time>
      </trkpt>
      <trkpt lat="48.70745" lon="2.03754">
        <ele>82</ele>
        <time>2020-08-11T08:55:34Z</time>
      </trkpt>
      <trkpt lat="48.70727" lon="2.03758">
        <ele>82</ele>
        <time>2020-08-11T08:55:51Z</time>
      </trkpt>
      <trkpt lat="48.70709" lon="2.0376">
        <ele>81</ele>
        <time>2020-08-11T08:56:08Z</time>
      </trkpt>
      <trkpt lat="48.70691" lon="2.0377">
        <ele>81</ele>
        <time>2020-08-11T08:56:23Z</time>
      </trkpt>
      <trkpt lat="48.70672" lon="2.03774">
        <ele>81</ele>
        <time>2020-08-11T08:56:36Z</time>
      </trkpt>
      <trkpt lat="48.70655" lon="2.0378">
        <ele>80</ele>
        <time>2020-08-11T08:56:50Z</time>
      </trkpt>
      <trkpt lat="48.70637" lon="2.03789">
        <ele>80</ele>
        <time>2020-08-11T08:57:04Z</time>
      </trkpt>
      <trkpt lat="48.70619" lon="2.03793">
        <ele>79</ele>
        <time>2020-08-11T08:57:37Z</time>
      </trkpt>
      <trkpt lat="48.70602" lon="2.0378">
        <ele>79</ele>
        <time>2020-08-11T08:57:53Z</time>
      </trkpt>
      <trkpt lat="48.70585" lon="2.03772">
        <ele>79</ele>
        <time>2020-08-11T08:58:05Z</time>
      </trkpt>
      <trkpt lat="48.70565" lon="2.0377">
        <ele>79</ele>
        <time>2020-08-11T08:58:19Z</time>
      </trkpt>
      <trkpt lat="48.70547" lon="2.03769">
        <ele>79</ele>
        <time>2020-08-11T08:58:34Z</time>
      </trkpt>
      <trkpt lat="48.70528" lon="2.0377">
        <ele>80</ele>
        <time>2020-08-11T08:58:52Z</time>
      </trkpt>
      <trkpt lat="48.7051" lon="2.0377">
        <ele>80</ele>
        <time>2020-08-11T08:59:05Z</time>
      </trkpt>
      <trkpt lat="48.705" lon="2.03795">
        <ele>80</ele>
        <time>2020-08-11T08:59:22Z</time>
      </trkpt>
    </trkseg>
  </trk>
</gpx>